Time;durP1;ratioP1;P1;durP2;ratioP2;P2;SDS_P1;SDS_P2;PMS_P1;PMS_P2;Temp;Humidity;BMP_temperature;BMP_pressure;BME280_temperature;BME280_humidity;BME280_pressure;Samples;Min_cycle;Max_cycle;Signal;HPM_P1;HPM_P2
2022/04/10 00:00:34;;;;;;;1.00;0.90;;;1.10;1.40;;;1.85;100.00;95399.23;651236;216;32754;-72
2022/04/10 00:03:16;;;;;;;0.80;0.57;;;1.30;1.40;;;1.91;100.00;95401.15;627269;226;32205;-72
2022/04/10 00:05:59;;;;;;;0.80;0.80;;;1.30;1.40;;;1.94;100.00;95407.64;618277;226;32156;-75
2022/04/10 00:08:43;;;;;;;0.80;0.80;;;1.30;1.40;;;1.94;100.00;95403.84;611777;226;32014;-75
2022/04/10 00:11:31;;;;;;;1.00;0.90;;;1.40;1.40;;;1.97;100.00;95406.98;654367;216;31561;-73
2022/04/10 00:14:19;;;;;;;1.35;0.70;;;1.50;1.40;;;2.08;100.00;95408.03;617420;226;32054;-75
2022/04/10 00:17:06;;;;;;;1.45;1.05;;;1.60;1.40;;;2.06;100.00;95406.08;621976;226;32323;-72
2022/04/10 00:19:54;;;;;;;0.80;0.80;;;1.50;1.40;;;2.07;100.00;95403.25;655124;216;31929;-74
2022/04/10 00:22:42;;;;;;;1.05;0.80;;;1.40;1.40;;;2.17;100.00;95402.18;647615;212;31510;-73
2022/04/10 00:25:24;;;;;;;0.90;0.70;;;1.50;1.40;;;2.10;100.00;95401.63;656689;216;31532;-74
2022/04/10 00:28:07;;;;;;;1.10;0.77;;;1.40;1.40;;;2.01;100.00;95407.45;648123;216;31594;-74
2022/04/10 00:30:49;;;;;;;0.70;0.70;;;1.40;1.40;;;1.93;100.00;95401.11;650306;212;31487;-75
2022/04/10 00:35:56;;;;;;;1.40;0.90;;;1.30;1.40;;;1.82;100.00;95399.47;655240;213;31573;-75
2022/04/10 00:38:44;;;;;;;1.30;1.20;;;1.30;1.40;;;1.82;100.00;95402.46;622098;226;32020;-71
2022/04/10 00:41:32;;;;;;;2.28;1.20;;;1.30;1.40;;;1.81;100.00;95409.61;650103;212;31606;-74
2022/04/10 00:44:17;;;;;;;1.23;1.12;;;1.20;1.40;;;1.74;100.00;95414.88;627023;226;31885;-75
2022/04/10 00:47:05;;;;;;;1.30;1.10;;;1.20;1.40;;;1.61;100.00;95410.69;651722;216;31609;-74
2022/04/10 00:49:47;;;;;;;1.25;0.85;;;1.10;1.40;;;1.69;100.00;95410.50;620480;226;31996;-72
2022/04/10 00:52:34;;;;;;;1.00;1.00;;;1.20;1.40;;;1.63;100.00;95410.08;648224;216;31946;-75
2022/04/10 00:55:16;;;;;;;1.00;1.00;;;1.20;1.40;;;1.64;100.00;95404.73;647579;212;32034;-73
2022/04/10 00:57:58;;;;;;;1.40;1.30;;;1.10;1.40;;;1.66;100.00;95403.75;648758;216;32286;-75
2022/04/10 01:00:45;;;;;;;0.80;0.80;;;1.10;1.40;;;1.61;100.00;95398.78;650105;212;32230;-73
2022/04/10 01:03:27;;;;;;;5.60;1.30;;;1.00;1.40;;;1.62;100.00;95396.92;652271;216;31484;-72
2022/04/10 01:06:15;;;;;;;1.52;1.10;;;1.00;1.40;;;1.57;100.00;95392.11;626544;226;31986;-75
2022/04/10 01:08:57;;;;;;;1.23;1.07;;;1.10;1.40;;;1.58;100.00;95397.19;647545;216;31836;-74
2022/04/10 01:11:44;;;;;;;2.50;1.45;;;1.00;1.40;;;1.60;100.00;95400.80;652075;212;42734;-71
2022/04/10 01:14:39;;;;;;;1.20;0.93;;;1.10;1.40;;;1.56;100.00;95399.89;655058;216;31564;-74
2022/04/10 01:17:28;;;;;;;0.60;0.60;;;1.00;1.40;;;1.56;100.00;95405.34;653642;212;31476;-76
2022/04/10 01:20:16;;;;;;;1.60;0.70;;;1.10;1.40;;;1.59;100.00;95409.66;647407;216;32375;-73
2022/04/10 01:25:32;;;;;;;2.55;1.20;;;1.00;1.40;;;1.55;100.00;95413.50;649024;216;31520;-73
2022/04/10 01:30:48;;;;;;;1.98;1.45;;;1.10;1.40;;;1.63;100.00;95420.02;648854;216;31832;-71
2022/04/10 01:35:51;;;;;;;0.88;0.88;;;1.20;1.40;;;1.76;100.00;95409.66;645797;216;31667;-75
2022/04/10 01:38:35;;;;;;;1.90;1.10;;;1.20;1.40;;;1.83;100.00;95409.95;648827;216;31701;-75
2022/04/10 01:41:24;;;;;;;1.40;0.90;;;1.30;1.40;;;1.86;100.00;95411.41;644331;216;31668;-73
2022/04/10 01:44:05;;;;;;;0.80;0.60;;;1.30;1.40;;;1.85;100.00;95409.71;621778;222;42660;-73
2022/04/10 01:46:47;;;;;;;3.10;1.40;;;1.40;1.40;;;1.90;100.00;95409.42;652156;216;31537;-74
2022/04/10 01:49:30;;;;;;;1.60;0.90;;;1.40;1.40;;;1.95;100.00;95410.91;644881;216;31572;-75
2022/04/10 01:52:13;;;;;;;1.40;1.30;;;1.40;1.40;;;2.00;100.00;95412.14;649659;216;42719;-75
2022/04/10 01:55:00;;;;;;;0.80;0.80;;;1.50;1.40;;;2.02;100.00;95413.92;648423;216;31696;-72
2022/04/10 01:57:48;;;;;;;1.65;1.55;;;1.50;1.40;;;2.06;100.00;95417.00;652204;216;31514;-74
2022/04/10 02:03:12;;;;;;;1.50;0.70;;;1.60;1.40;;;2.18;100.00;95418.02;648278;212;32089;-73
2022/04/10 02:05:55;;;;;;;0.60;0.50;;;1.60;1.40;;;2.18;100.00;95420.05;621757;222;31906;-74
2022/04/10 02:08:36;;;;;;;0.80;0.40;;;1.70;1.40;;;2.15;100.00;95420.23;634159;216;31676;-74
2022/04/10 02:11:24;;;;;;;0.62;0.60;;;1.80;1.40;;;2.16;100.00;95419.66;649455;216;31544;-73
2022/04/10 02:14:12;;;;;;;0.60;0.60;;;1.60;1.40;;;1.98;100.00;95417.95;647364;216;31566;-74
2022/04/10 02:16:55;;;;;;;2.50;1.10;;;1.20;1.40;;;1.89;100.00;95415.93;651162;216;31750;-75
2022/04/10 02:19:46;;;;;;;0.70;0.70;;;1.10;1.40;;;1.89;100.00;95414.53;643838;216;42207;-73
2022/04/10 02:22:34;;;;;;;0.90;0.80;;;1.20;1.40;;;1.90;100.00;95417.60;646876;216;42102;-74
2022/04/10 02:25:15;;;;;;;2.37;1.25;;;1.10;1.40;;;1.85;100.00;95413.72;649629;216;32043;-74
2022/04/10 02:27:57;;;;;;;1.20;0.62;;;1.20;1.40;;;1.89;100.00;95422.61;652306;216;31588;-75
2022/04/10 02:30:39;;;;;;;0.95;0.95;;;1.20;1.40;;;1.90;100.00;95419.36;646077;216;31649;-75
2022/04/10 02:38:27;;;;;;;1.20;0.95;;;1.20;1.40;;;1.95;100.00;95422.09;643590;216;31480;-75
2022/04/10 02:41:11;;;;;;;0.50;0.50;;;1.30;1.40;;;2.02;100.00;95420.87;618162;222;43078;-75
2022/04/10 02:43:53;;;;;;;1.50;1.00;;;1.30;1.40;;;2.08;100.00;95424.77;653998;212;32110;-75
2022/04/10 02:46:34;;;;;;;0.60;0.60;;;1.40;1.40;;;2.13;100.00;95425.78;626633;226;32793;-74
2022/04/10 02:49:22;;;;;;;0.63;0.63;;;1.40;1.40;;;2.12;100.00;95430.58;643156;219;31482;-72
2022/04/10 02:52:10;;;;;;;0.40;0.37;;;1.50;1.40;;;2.22;100.00;95431.11;641657;217;31492;-75
2022/04/10 02:54:51;;;;;;;0.70;0.60;;;1.50;1.40;;;2.20;100.00;95433.38;650470;212;31529;-76
2022/04/10 02:57:35;;;;;;;1.00;0.90;;;1.60;1.40;;;2.20;100.00;95434.72;655872;212;42232;-74
2022/04/10 03:00:21;;;;;;;1.25;1.15;;;1.60;1.40;;;2.19;100.00;95435.63;648210;216;32190;-74
2022/04/10 03:03:02;;;;;;;0.65;0.65;;;1.60;1.40;;;2.18;100.00;95441.98;654170;216;32136;-73
2022/04/10 03:05:44;;;;;;;0.90;0.43;;;1.70;1.40;;;2.30;100.00;95440.09;647730;216;31525;-75
2022/04/10 03:11:06;;;;;;;0.90;0.60;;;1.70;1.40;;;2.31;100.00;95438.77;653262;213;31909;-72
2022/04/10 03:13:54;;;;;;;1.77;1.37;;;1.80;1.40;;;2.38;100.00;95444.13;649508;212;42142;-74
2022/04/10 03:16:36;;;;;;;0.50;0.50;;;1.80;1.40;;;2.31;100.00;95442.99;652359;216;31934;-74
2022/04/10 03:19:18;;;;;;;1.20;1.10;;;1.80;1.40;;;2.33;100.00;95445.69;645272;216;31598;-74
2022/04/10 03:22:00;;;;;;;1.48;1.00;;;1.80;1.40;;;2.38;100.00;95439.96;650717;212;31590;-74
2022/04/10 03:24:41;;;;;;;3.30;1.00;;;1.80;1.40;;;2.45;100.00;95441.44;647396;216;31946;-74
2022/04/10 03:27:23;;;;;;;0.68;0.68;;;1.80;1.40;;;2.49;100.00;95443.67;653405;216;31532;-74
2022/04/10 03:30:06;;;;;;;1.73;1.27;;;1.80;1.40;;;2.44;100.00;95448.23;650144;216;31540;-74
2022/04/10 03:32:48;;;;;;;1.00;1.00;;;1.80;1.40;;;2.34;100.00;95435.86;646523;216;31542;-73
2022/04/10 03:35:58;;;;;;;1.55;1.05;;;1.70;1.40;;;2.33;100.00;95442.21;645848;212;31736;-74
2022/04/10 03:38:39;;;;;;;1.73;1.40;;;1.70;1.40;;;2.29;100.00;95438.53;648743;216;32176;-73
2022/04/10 03:41:24;;;;;;;1.77;1.00;;;1.60;1.40;;;2.28;100.00;95445.11;656306;216;31596;-73
2022/04/10 03:44:06;;;;;;;0.98;0.98;;;1.60;1.40;;;2.27;100.00;95446.59;648568;216;31511;-73
2022/04/10 03:46:54;;;;;;;1.60;1.40;;;1.60;1.40;;;2.17;100.00;95446.14;647410;212;31558;-72
2022/04/10 03:49:42;;;;;;;0.95;0.85;;;1.60;1.40;;;2.17;100.00;95445.17;651271;212;31559;-75
2022/04/10 03:55:05;;;;;;;0.70;0.70;;;1.60;1.40;;;2.20;100.00;95451.79;617435;226;32091;-72
2022/04/10 03:57:49;;;;;;;1.30;1.10;;;1.60;1.40;;;2.26;100.00;95451.98;644965;216;42203;-75
2022/04/10 04:03:30;;;;;;;0.90;0.70;;;1.50;1.40;;;2.06;100.00;95449.88;651911;216;31563;-75
2022/04/10 04:06:11;;;;;;;1.25;1.10;;;1.40;1.40;;;1.99;100.00;95455.50;647530;212;42152;-74
2022/04/10 04:08:53;;;;;;;1.48;1.25;;;1.30;1.40;;;1.95;100.00;95458.81;647301;212;31610;-75
2022/04/10 04:11:35;;;;;;;0.93;0.77;;;1.30;1.40;;;1.91;100.00;95464.00;650015;216;31721;-75
2022/04/10 04:14:20;;;;;;;1.50;1.40;;;1.20;1.40;;;2.01;100.00;95460.11;652253;212;31617;-74
2022/04/10 04:17:01;;;;;;;0.97;0.73;;;1.30;1.40;;;2.01;100.00;95464.33;647713;216;31531;-74
2022/04/10 04:19:49;;;;;;;1.00;0.90;;;1.30;1.40;;;2.02;100.00;95470.23;647749;216;43037;-71
2022/04/10 04:22:33;;;;;;;2.90;1.40;;;1.30;1.40;;;1.97;100.00;95472.53;646409;216;31506;-75
2022/04/10 04:28:01;;;;;;;0.70;0.70;;;1.50;1.40;;;2.10;100.00;95473.71;650936;216;31616;-72
2022/04/10 04:30:44;;;;;;;1.73;1.37;;;1.50;1.40;;;2.23;100.00;95483.27;648353;212;31514;-75
2022/04/10 04:35:57;;;;;;;1.20;0.60;;;1.70;1.40;;;2.26;100.00;95487.45;649080;216;32946;-75
2022/04/10 04:38:40;;;;;;;1.40;0.80;;;1.70;1.40;;;2.16;100.00;95481.95;634951;221;31706;-73
2022/04/10 04:41:22;;;;;;;1.08;1.00;;;1.70;1.40;;;2.21;100.00;95481.70;646347;216;32609;-74
2022/04/10 04:44:06;;;;;;;1.25;0.90;;;1.60;1.40;;;2.12;100.00;95482.56;648070;216;31644;-73
2022/04/10 04:46:57;;;;;;;2.47;1.20;;;1.60;1.40;;;2.02;100.00;95490.70;629966;222;31892;-74
2022/04/10 04:49:42;;;;;;;1.80;0.73;;;1.50;1.40;;;1.98;100.00;95490.28;652615;216;31554;-76
2022/04/10 04:52:29;;;;;;;1.80;0.80;;;1.40;1.40;;;1.93;100.00;95497.45;647361;212;42713;-71
2022/04/10 04:55:11;;;;;;;0.60;0.60;;;1.40;1.40;;;1.81;100.00;95494.92;647208;212;31526;-73
2022/04/10 04:57:59;;;;;;;0.90;0.70;;;1.30;1.40;;;1.84;100.00;95501.21;652884;216;42112;-75
2022/04/10 05:00:44;;;;;;;0.88;0.70;;;1.40;1.40;;;1.89;100.00;95507.45;649699;216;31556;-73
2022/04/10 05:03:26;;;;;;;4.00;0.90;;;1.40;1.40;;;1.85;100.00;95506.03;646321;216;31605;-74
2022/04/10 05:06:07;;;;;;;1.00;1.00;;;1.40;1.40;;;1.94;100.00;95511.67;648980;216;31455;-74
2022/04/10 05:08:51;;;;;;;0.85;0.85;;;1.50;1.40;;;2.00;100.00;95517.63;648354;216;31503;-75
2022/04/10 05:11:39;;;;;;;3.60;0.70;;;1.50;1.40;;;2.05;100.00;95511.52;652642;212;31631;-75
2022/04/10 05:14:26;;;;;;;1.90;1.30;;;1.60;1.40;;;2.13;100.00;95512.68;649186;216;31512;-73
2022/04/10 05:17:11;;;;;;;1.30;0.90;;;1.70;1.40;;;2.24;100.00;95514.97;647223;212;32156;-75
2022/04/10 05:19:59;;;;;;;1.20;1.10;;;1.70;1.40;;;2.26;100.00;95527.94;650274;212;31569;-76
2022/04/10 05:22:42;;;;;;;0.90;0.90;;;1.80;1.40;;;2.29;100.00;95525.67;651516;216;31530;-75
2022/04/10 05:25:27;;;;;;;2.22;0.82;;;1.80;1.40;;;2.38;100.00;95535.56;653172;216;31511;-76
2022/04/10 05:28:14;;;;;;;0.98;0.70;;;1.80;1.40;;;2.39;100.00;95533.86;646909;216;31504;-72
2022/04/10 05:30:56;;;;;;;1.58;1.48;;;1.90;1.40;;;2.46;100.00;95537.70;645664;216;31555;-71
2022/04/10 05:35:55;;;;;;;1.15;1.05;;;2.00;1.40;;;2.46;100.00;95541.98;644707;216;31536;-72
2022/04/10 05:38:41;;;;;;;0.95;0.95;;;2.00;1.40;;;2.54;100.00;95544.21;649455;216;31866;-75
2022/04/10 05:41:29;;;;;;;2.50;1.15;;;2.00;1.40;;;2.56;100.00;95548.14;643853;216;42138;-75
2022/04/10 05:44:10;;;;;;;0.82;0.75;;;2.00;1.40;;;2.58;100.00;95554.32;645009;216;31558;-73
2022/04/10 05:46:52;;;;;;;1.10;1.02;;;2.10;1.40;;;2.64;100.00;95561.95;646022;216;31566;-73
2022/04/10 05:49:34;;;;;;;1.20;1.08;;;2.10;1.40;;;2.67;100.00;95559.47;646639;216;31596;-72
2022/04/10 05:52:15;;;;;;;1.30;1.00;;;2.10;1.40;;;2.79;100.00;95564.78;649973;212;31539;-72
2022/04/10 05:55:15;;;;;;;1.40;0.98;;;2.20;1.40;;;2.78;100.00;95572.27;650406;216;31553;-75
2022/04/10 05:58:05;;;;;;;1.70;1.60;;;2.20;1.40;;;2.75;100.00;95572.93;648925;216;31561;-73
2022/04/10 06:00:55;;;;;;;1.95;1.40;;;2.20;1.40;;;2.75;100.00;95580.16;646771;216;31520;-75
2022/04/10 06:03:36;;;;;;;1.80;1.08;;;2.20;1.40;;;2.91;100.00;95591.33;648172;212;31544;-73
2022/04/10 06:06:21;;;;;;;1.10;0.90;;;2.30;1.40;;;2.84;100.00;95586.33;649903;212;31551;-73
2022/04/10 06:09:03;;;;;;;1.50;1.40;;;2.30;1.40;;;2.95;100.00;95597.63;631011;217;31712;-73
2022/04/10 06:22:23;;;;;;;0.82;0.82;;;2.10;1.40;;;2.79;100.00;95615.56;647516;216;31564;-73
2022/04/10 06:25:04;;;;;;;2.40;1.40;;;2.20;1.40;;;2.78;100.00;95608.56;651087;216;42883;-74
2022/04/10 06:27:45;;;;;;;1.62;1.30;;;2.20;1.40;;;2.81;100.00;95614.14;650571;216;42241;-74
2022/04/10 06:30:27;;;;;;;2.90;1.00;;;2.20;1.40;;;2.86;100.00;95620.03;643744;213;32064;-74
2022/04/10 06:35:54;;;;;;;1.00;0.80;;;2.30;1.40;;;2.92;100.00;95631.02;648579;216;31648;-74
2022/04/10 06:38:53;;;;;;;1.73;1.60;;;2.30;1.40;;;2.86;100.00;95627.42;618863;224;31777;-75
2022/04/10 06:41:42;;;;;;;1.10;1.00;;;2.30;1.40;;;2.97;100.00;95622.60;647050;216;31571;-73
2022/04/10 06:44:24;;;;;;;1.85;1.45;;;2.30;1.40;;;3.16;100.00;95627.38;647982;215;31483;-76
2022/04/10 06:47:13;;;;;;;2.20;1.60;;;2.60;1.40;;;3.48;100.00;95627.23;647118;216;32638;-73
2022/04/10 06:49:56;;;;;;;1.70;1.45;;;3.00;1.40;;;3.72;100.00;95629.19;649241;216;32158;-73
2022/04/10 06:52:38;;;;;;;1.67;1.00;;;3.20;1.40;;;3.71;100.00;95643.20;646916;212;32209;-73
2022/04/10 06:55:20;;;;;;;1.52;1.17;;;3.10;1.40;;;3.88;100.00;95639.50;651142;216;31569;-73
2022/04/10 06:58:05;;;;;;;1.50;1.40;;;3.40;1.40;;;3.87;100.00;95641.84;653016;216;31647;-75
2022/04/10 07:00:48;;;;;;;1.87;1.77;;;3.40;1.40;;;4.21;100.00;95644.05;647707;212;31552;-74
2022/04/10 07:03:31;;;;;;;1.77;1.62;;;3.60;1.40;;;4.04;100.00;95645.80;646744;216;31557;-73
2022/04/10 07:06:12;;;;;;;1.35;1.25;;;3.50;1.40;;;4.27;100.00;95649.50;648652;216;31578;-75
2022/04/10 07:08:54;;;;;;;1.20;1.10;;;3.60;1.40;;;4.46;100.00;95648.40;645513;214;42401;-76
2022/04/10 07:11:36;;;;;;;1.27;1.17;;;4.00;1.40;;;4.67;100.00;95649.36;651057;216;31587;-75
2022/04/10 07:14:19;;;;;;;2.40;1.30;;;3.90;1.40;;;4.32;100.00;95654.82;651079;216;31536;-75
2022/04/10 07:17:01;;;;;;;1.20;1.10;;;3.70;1.40;;;4.36;100.00;95654.41;647012;216;31505;-75
2022/04/10 07:19:46;;;;;;;2.42;1.65;;;3.80;1.40;;;4.42;100.00;95665.30;647947;212;31562;-74
2022/04/10 07:25:18;;;;;;;1.80;1.50;;;3.70;1.40;;;4.56;100.00;95663.41;649402;212;31516;-75
2022/04/10 07:27:59;;;;;;;2.40;1.67;;;3.90;1.40;;;4.70;100.00;95668.00;645623;216;31714;-75
2022/04/10 07:30:41;;;;;;;1.25;1.15;;;4.00;1.40;;;4.62;100.00;95670.78;649245;212;31540;-75
2022/04/10 07:35:50;;;;;;;1.33;1.23;;;4.00;1.40;;;4.59;100.00;95676.25;646249;212;31561;-75
2022/04/10 07:38:34;;;;;;;2.30;1.65;;;3.90;1.40;;;4.46;100.00;95672.77;651418;216;32181;-74
2022/04/10 07:41:22;;;;;;;6.80;2.75;;;3.80;1.40;;;4.57;100.00;95674.04;645769;216;31559;-74
2022/04/10 07:44:07;;;;;;;2.70;2.40;;;3.90;1.40;;;4.83;100.00;95670.56;651744;212;31552;-75
2022/04/10 07:49:36;;;;;;;2.35;1.92;;;4.60;1.40;;;5.45;100.00;95669.57;648344;212;31593;-75
2022/04/10 07:52:21;;;;;;;1.60;1.50;;;4.90;1.40;;;5.30;100.00;95674.09;649679;212;31865;-75
2022/04/10 07:55:05;;;;;;;2.40;1.40;;;4.60;1.40;;;5.52;100.00;95674.31;649963;212;31584;-77
2022/04/10 07:57:52;;;;;;;1.67;1.58;;;4.90;1.40;;;5.67;100.00;95685.38;628637;221;42278;-73
2022/04/10 08:00:44;;;;;;;1.67;1.15;;;5.20;1.40;;;5.41;100.00;95687.42;645371;216;31558;-77
2022/04/10 08:03:34;;;;;;;1.87;1.77;;;4.70;1.40;;;5.41;100.00;95688.97;643177;216;31655;-74
2022/04/10 08:06:16;;;;;;;1.30;1.10;;;4.70;1.40;;;5.66;100.00;95682.42;645968;216;31591;-73
2022/04/10 08:10:37;;;;;;;1.30;1.20;;;5.40;1.40;;;6.09;100.00;95683.16;650370;212;32320;-76
2022/04/10 08:13:23;;;;;;;1.40;1.30;;;5.60;1.40;;;6.33;100.00;95679.25;646113;212;32203;-76
2022/04/10 08:16:05;;;;;;;2.97;1.60;;;5.90;1.40;;;6.70;100.00;95681.11;648491;216;32312;-76
2022/04/10 08:18:49;;;;;;;1.45;1.35;;;5.90;1.40;;;6.78;98.15;95683.99;620382;226;32734;-77
2022/04/10 08:21:37;;;;;;;1.40;1.23;;;5.90;1.40;;;6.41;93.08;95686.67;643808;216;31587;-73
2022/04/10 08:24:18;;;;;;;1.50;1.40;;;5.40;1.40;;;6.84;97.88;95686.83;649857;216;42513;-74
2022/04/10 08:27:00;;;;;;;3.60;1.50;;;6.10;1.40;;;6.98;95.87;95686.20;650909;212;31552;-74
2022/04/10 08:29:42;;;;;;;2.30;1.65;;;6.20;1.40;;;7.05;99.01;95683.53;646053;212;31566;-73
2022/04/10 08:32:37;;;;;;;1.57;1.27;;;6.10;1.40;;;7.09;99.42;95698.16;644321;216;31567;-77
2022/04/10 08:35:51;;;;;;;3.70;1.33;;;6.10;1.40;;;7.11;93.63;95689.25;645315;212;31676;-73
2022/04/10 08:38:38;;;;;;;1.20;0.98;;;6.50;1.40;;;7.00;92.04;95688.35;650579;212;31641;-76
2022/04/10 08:41:31;;;;;;;1.70;1.33;;;6.00;1.40;;;6.86;90.35;95704.01;650411;212;32218;-73
2022/04/10 08:44:08;;;;;;;2.33;1.70;;;5.70;1.40;;;6.29;86.94;95707.77;618700;226;32004;-76
2022/04/10 08:46:49;;;;;;;1.40;1.08;;;5.30;1.40;;;6.31;86.63;95710.14;651156;212;31660;-73
2022/04/10 08:49:37;;;;;;;1.40;1.00;;;5.60;1.40;;;6.53;84.67;95711.18;650433;216;31554;-76
2022/04/10 08:52:25;;;;;;;1.60;1.00;;;5.70;1.40;;;6.89;84.78;95712.66;647039;216;42134;-73
2022/04/10 08:55:07;;;;;;;2.15;1.08;;;6.50;1.40;;;7.27;84.38;95712.39;618489;222;31885;-75
2022/04/10 08:57:52;;;;;;;1.23;1.13;;;6.50;1.40;;;6.69;83.37;95715.94;648289;216;31555;-74
2022/04/10 09:00:35;;;;;;;1.50;1.10;;;5.90;1.40;;;7.13;81.28;95719.55;650073;216;31535;-75
2022/04/10 09:03:16;;;;;;;1.50;1.30;;;6.50;1.40;;;8.44;77.43;95709.33;644121;216;31538;-74
2022/04/10 09:06:04;;;;;;;1.65;1.27;;;9.40;1.40;;;9.79;69.21;95707.75;645939;212;31762;-73
2022/04/10 09:09:17;;;;;;;1.77;1.20;;;11.60;1.40;;;10.32;66.38;95696.35;649635;212;31572;-74
2022/04/10 09:11:59;;;;;;;1.10;1.00;;;10.90;1.40;;;11.06;58.73;95700.48;618244;226;31976;-74
2022/04/10 09:14:43;;;;;;;1.10;0.90;;;13.20;1.40;;;11.05;56.16;95704.26;650502;212;31681;-75
2022/04/10 09:17:29;;;;;;;1.90;1.07;;;10.60;1.40;;;9.68;59.31;95711.91;649487;216;31607;-75
2022/04/10 09:20:09;;;;;;;1.50;0.90;;;10.40;1.40;;;9.18;57.54;95707.08;649979;216;31506;-75
2022/04/10 09:22:51;;;;;;;1.30;1.00;;;8.10;1.40;;;9.48;58.43;95705.31;625555;225;32100;-77
2022/04/10 09:25:33;;;;;;;2.20;1.00;;;10.50;1.40;;;11.29;54.81;95697.45;617449;222;32408;-75
2022/04/10 09:28:15;;;;;;;1.00;0.90;;;10.20;1.40;;;10.87;54.18;95704.47;639082;217;31839;-76
2022/04/10 09:31:03;;;;;;;1.20;0.80;;;9.90;1.40;;;10.17;52.41;95704.78;648760;216;31500;-73
2022/04/10 09:35:51;;;;;;;0.85;0.80;;;12.20;1.40;;;12.15;50.49;95696.58;649783;216;31523;-73
2022/04/10 09:38:39;;;;;;;2.20;1.02;;;13.20;1.40;;;12.48;50.21;95695.06;620968;226;32260;-75
2022/04/10 09:41:27;;;;;;;1.27;1.10;;;12.70;1.40;;;11.20;49.85;95700.94;647121;212;31631;-74
2022/04/10 09:44:23;;;;;;;1.40;1.10;;;8.90;1.40;;;9.40;52.43;95709.69;645571;216;42219;-76
2022/04/10 09:47:08;;;;;;;1.30;0.90;;;7.10;1.40;;;9.01;55.94;95710.55;648865;216;31993;-74
2022/04/10 09:49:55;;;;;;;1.33;0.97;;;7.00;1.40;;;8.31;57.35;95700.59;645218;215;31682;-75
2022/04/10 09:52:43;;;;;;;3.00;1.00;;;6.40;1.40;;;8.09;61.79;95705.88;649052;216;31595;-75
2022/04/10 09:55:35;;;;;;;1.60;0.90;;;6.80;1.40;;;8.86;60.96;95704.85;646388;212;31581;-73
2022/04/10 09:58:19;;;;;;;1.00;0.90;;;8.90;1.40;;;8.30;59.37;95692.55;647450;216;31557;-76
2022/04/10 10:01:10;;;;;;;1.70;0.90;;;7.00;1.40;;;8.11;61.66;95693.17;647399;212;31547;-73
2022/04/10 10:03:48;;;;;;;1.10;1.00;;;7.30;1.40;;;8.54;59.45;95693.19;647084;215;31561;-75
2022/04/10 10:06:35;;;;;;;1.20;1.10;;;8.70;1.40;;;9.47;54.81;95693.36;646160;216;31787;-73
2022/04/10 10:09:17;;;;;;;1.00;0.90;;;9.10;1.40;;;9.07;54.84;95697.66;646683;212;31707;-76
2022/04/10 10:12:00;;;;;;;1.00;0.88;;;7.80;1.40;;;8.80;56.24;95695.30;645617;216;31734;-75
2022/04/10 10:14:43;;;;;;;1.60;0.90;;;7.30;1.40;;;8.17;58.94;95693.61;647015;216;31516;-74
2022/04/10 10:17:25;;;;;;;0.80;0.80;;;7.10;1.40;;;8.12;60.72;95704.23;648915;216;31591;-73
2022/04/10 10:20:08;;;;;;;1.97;1.20;;;8.50;1.40;;;11.42;58.71;95690.80;649992;212;31598;-74
2022/04/10 10:22:50;;;;;;;1.60;0.70;;;13.30;1.40;;;13.63;45.61;95685.31;645420;212;31537;-76
2022/04/10 10:25:50;;;;;;;1.90;0.80;;;14.70;1.40;;;13.38;45.00;95680.77;648929;216;31513;-76
2022/04/10 10:28:47;;;;;;;1.27;0.95;;;13.60;1.40;;;14.52;41.92;95670.84;645245;216;32144;-75
2022/04/10 10:31:44;;;;;;;1.42;0.95;;;12.50;1.40;;;11.05;44.53;95678.21;618905;226;31936;-77
2022/04/10 10:35:53;;;;;;;1.70;1.05;;;7.80;1.40;;;9.23;52.46;95694.90;646222;212;31534;-75
2022/04/10 10:38:41;;;;;;;0.70;0.60;;;7.80;1.40;;;8.80;54.18;95685.41;651518;216;31527;-76
2022/04/10 10:41:41;;;;;;;1.47;1.00;;;7.70;1.40;;;9.97;51.11;95682.20;618056;226;42455;-76
2022/04/10 10:44:48;;;;;;;1.50;0.90;;;9.00;1.40;;;9.89;50.49;95682.17;650735;216;42493;-73
2022/04/10 10:47:35;;;;;;;0.93;0.80;;;7.90;1.40;;;9.23;51.82;95679.91;647796;216;32736;-77
2022/04/10 10:53:05;;;;;;;0.70;0.70;;;7.60;1.40;;;9.36;54.59;95689.99;648619;216;31699;-73
2022/04/10 10:55:46;;;;;;;2.57;1.20;;;8.30;1.40;;;9.16;52.71;95693.69;651111;212;31565;-74
2022/04/10 10:58:31;;;;;;;1.50;0.90;;;8.00;1.40;;;9.70;51.58;95679.61;649386;216;31603;-72
2022/04/10 11:04:00;;;;;;;1.60;1.00;;;8.90;1.40;;;9.55;53.08;95686.19;649123;216;42170;-73
2022/04/10 11:06:43;;;;;;;1.40;1.00;;;8.10;1.40;;;8.91;53.79;95700.73;649706;212;31523;-73
2022/04/10 11:09:32;;;;;;;1.30;1.00;;;7.10;1.40;;;7.84;59.41;95701.77;636204;216;42348;-73
2022/04/10 11:12:21;;;;;;;0.90;0.77;;;6.00;1.40;;;7.62;69.39;95716.52;621251;222;31808;-75
2022/04/10 11:17:49;;;;;;;1.10;1.00;;;8.80;1.40;;;10.64;56.34;95706.38;650559;212;31537;-72
2022/04/10 11:20:31;;;;;;;1.10;0.82;;;10.20;1.40;;;12.37;51.28;95693.78;646238;212;43348;-74
2022/04/10 11:23:13;;;;;;;1.03;0.80;;;11.20;1.40;;;12.63;48.58;95697.23;644266;212;31559;-74
2022/04/10 11:25:54;;;;;;;1.40;0.90;;;9.90;1.40;;;10.45;50.05;95713.89;644902;216;32934;-74
2022/04/10 11:28:54;;;;;;;0.90;0.70;;;8.20;1.40;;;8.42;66.59;95743.39;645779;216;33084;-73
2022/04/10 11:31:40;;;;;;;1.40;1.30;;;5.70;1.40;;;6.17;99.37;95768.61;646211;213;31515;-74
2022/04/10 11:35:55;;;;;;;1.40;1.20;;;4.10;1.40;;;5.01;100.00;95753.48;616753;226;42843;-73
2022/04/10 11:38:39;;;;;;;2.80;0.90;;;4.40;1.40;;;5.59;100.00;95755.51;649264;216;31666;-76
2022/04/10 11:41:23;;;;;;;1.00;0.90;;;5.40;1.40;;;7.49;100.00;95743.55;647468;216;42288;-74
2022/04/10 11:44:12;;;;;;;1.23;1.02;;;8.20;1.40;;;9.20;94.24;95742.76;646129;212;31629;-77
2022/04/10 11:46:55;;;;;;;0.70;0.70;;;8.70;1.40;;;10.53;83.13;95735.60;645111;216;33010;-74
2022/04/10 11:49:37;;;;;;;1.77;1.30;;;9.60;1.40;;;11.43;78.75;95726.56;619768;226;31952;-73
2022/04/10 11:54:59;;;;;;;1.70;1.15;;;8.90;1.40;;;12.26;65.12;95722.47;646250;212;34490;-77
2022/04/10 11:57:44;;;;;;;1.40;0.90;;;10.10;1.40;;;13.25;62.11;95720.91;645206;216;31553;-76
2022/04/10 12:00:26;;;;;;;1.50;1.00;;;12.30;1.40;;;14.77;51.75;95717.11;650618;212;31931;-77
2022/04/10 12:03:09;;;;;;;2.33;1.23;;;13.80;1.40;;;16.02;47.19;95708.02;645324;212;31494;-75
2022/04/10 12:05:51;;;;;;;1.25;0.98;;;14.70;1.40;;;16.18;48.70;95701.87;648095;216;32127;-74
2022/04/10 12:08:33;;;;;;;1.85;1.20;;;13.20;1.40;;;15.97;46.65;95706.39;639089;216;32498;-75
2022/04/10 12:11:17;;;;;;;1.60;1.50;;;12.10;1.40;;;14.63;48.21;95717.03;647994;216;31570;-76
2022/04/10 12:13:58;;;;;;;1.60;1.42;;;11.90;1.40;;;13.60;51.32;95721.81;647247;212;31528;-75
2022/04/10 12:16:46;;;;;;;1.77;1.00;;;10.20;1.40;;;11.82;54.59;95710.58;647142;216;31576;-75
2022/04/10 12:19:36;;;;;;;1.20;1.00;;;9.30;1.40;;;12.73;54.76;95711.53;648364;216;31536;-74
2022/04/10 12:22:18;;;;;;;1.10;1.00;;;10.60;1.40;;;12.96;51.43;95698.75;646233;212;31527;-73
2022/04/10 12:25:07;;;;;;;1.05;0.80;;;10.80;1.40;;;11.86;49.07;95700.41;643983;212;31515;-74
2022/04/10 12:27:51;;;;;;;1.50;1.10;;;8.60;1.40;;;10.04;54.59;95714.52;648857;216;31496;-75
2022/04/10 12:30:37;;;;;;;1.60;0.80;;;7.60;1.40;;;9.31;57.01;95718.15;646349;216;43314;-77
2022/04/10 12:38:30;;;;;;;1.20;0.80;;;5.70;1.40;;;6.74;99.90;95733.03;646315;212;31554;-75
2022/04/10 12:41:12;;;;;;;1.50;0.88;;;6.20;1.40;;;9.37;91.40;95720.72;650276;212;31543;-77
2022/04/10 12:44:00;;;;;;;1.50;1.20;;;8.80;1.40;;;12.25;72.33;95695.36;620959;222;31884;-75
2022/04/10 12:46:42;;;;;;;1.30;1.20;;;11.50;1.40;;;15.04;55.18;95681.80;645893;216;31605;-76
2022/04/10 12:49:24;;;;;;;2.00;1.27;;;12.50;1.40;;;15.71;50.26;95680.02;647276;216;31564;-77
2022/04/10 12:52:11;;;;;;;2.00;1.33;;;13.10;1.40;;;15.07;46.85;95676.77;644089;212;31801;-76
2022/04/10 12:54:55;;;;;;;1.33;1.23;;;11.40;1.40;;;11.08;54.58;95682.92;645905;216;31587;-76
2022/04/10 12:57:37;;;;;;;1.80;1.05;;;8.30;1.40;;;10.55;58.22;95669.80;648786;216;31530;-77
2022/04/10 13:00:29;;;;;;;0.73;0.70;;;7.90;1.40;;;9.89;60.77;95676.77;629195;222;31847;-75
2022/04/10 13:03:20;;;;;;;0.80;0.75;;;7.90;1.40;;;9.06;64.59;95687.23;641616;216;33640;-74
2022/04/10 13:06:08;;;;;;;1.40;1.30;;;7.40;1.40;;;8.34;70.14;95696.44;649394;216;42780;-75